createdAt,value
2023-04-26T00:00:22.228Z,61.5
2023-04-26T00:00:52.227Z,61.21191
2023-04-26T00:01:22.223Z,61.95215
2023-04-26T00:01:52.221Z,61.22949
2023-04-26T00:02:22.310Z,60.66309
2023-04-26T00:02:52.316Z,60.75293
2023-04-26T00:03:22.301Z,61.0918
2023-04-26T00:03:52.516Z,61.54492
2023-04-26T00:04:22.567Z,61.29883
2023-04-26T00:04:52.518Z,60.7627
2023-04-26T00:05:22.317Z,60.60449
2023-04-26T00:05:52.269Z,60.53711
2023-04-26T00:06:22.219Z,60.5293
2023-04-26T00:06:52.233Z,61.18359
2023-04-26T00:07:22.221Z,60.73633
2023-04-26T00:07:52.224Z,61.46973
2023-04-26T00:08:22.222Z,61.4248
2023-04-26T00:08:52.478Z,61.78125
2023-04-26T00:09:22.231Z,60.5918
2023-04-26T00:09:52.227Z,60.54883
2023-04-26T00:10:22.225Z,60.84277
2023-04-26T00:10:52.227Z,60.54883
2023-04-26T00:11:22.224Z,60.26074
2023-04-26T00:11:52.228Z,60.10449
2023-04-26T00:12:22.343Z,60.36133
2023-04-26T00:12:52.223Z,60.51172
2023-04-26T00:13:22.223Z,60.12891
2023-04-26T00:13:52.250Z,59.70313
2023-04-26T00:14:22.231Z,59.7168
2023-04-26T00:14:52.221Z,60.08008
2023-04-26T00:15:22.224Z,59.9209
2023-04-26T00:15:52.272Z,59.77441
2023-04-26T00:16:22.262Z,60.33398
2023-04-26T00:16:52.250Z,60.1709
2023-04-26T00:17:22.224Z,61.45605
2023-04-26T00:17:52.255Z,60.60352
2023-04-26T00:18:22.225Z,60.66113
2023-04-26T00:18:52.431Z,60.27441
2023-04-26T00:19:22.231Z,59.65527
2023-04-26T00:19:52.250Z,59.52539
2023-04-26T00:20:22.238Z,59.38574
2023-04-26T00:20:52.226Z,59.69043
2023-04-26T00:21:22.228Z,59.62012
2023-04-26T00:21:52.224Z,59.92188
2023-04-26T00:22:22.224Z,60.12695
2023-04-26T00:22:52.228Z,60.23438
2023-04-26T00:23:22.227Z,60.375
2023-04-26T00:23:52.230Z,60.33105
2023-04-26T00:24:22.237Z,60.66699
2023-04-26T00:24:52.274Z,59.82715
2023-04-26T00:25:22.230Z,61.1709
2023-04-26T00:25:52.227Z,60.05273
2023-04-26T00:26:22.228Z,60.15137
2023-04-26T00:26:52.232Z,60.20605
2023-04-26T00:27:22.228Z,60.06738
2023-04-26T00:27:52.229Z,59.35352
2023-04-26T00:28:22.228Z,59.76855
2023-04-26T00:28:52.477Z,60.25
2023-04-26T00:29:22.226Z,59.82617
2023-04-26T00:29:52.227Z,59.50586
2023-04-26T00:30:22.231Z,59.66211
2023-04-26T00:30:52.230Z,59.79688
2023-04-26T00:31:22.258Z,59.18945
2023-04-26T00:31:52.272Z,59.47266
2023-04-26T00:32:22.269Z,59.38965
2023-04-26T00:32:52.287Z,58.86133
2023-04-26T00:33:22.232Z,58.94531
2023-04-26T00:33:52.243Z,59.05566
2023-04-26T00:34:22.227Z,58.74219
2023-04-26T00:34:52.228Z,59.11133
2023-04-26T00:35:22.241Z,58.98242
2023-04-26T00:35:52.238Z,59.14746
2023-04-26T00:36:22.243Z,59.66797
2023-04-26T00:36:52.231Z,59.41602
2023-04-26T00:37:22.234Z,59.22656
2023-04-26T00:37:52.235Z,58.96973
2023-04-26T00:38:22.238Z,59.12598
2023-04-26T00:38:52.478Z,59.01172
2023-04-26T00:39:22.246Z,58.96289
2023-04-26T00:39:52.233Z,59.94238
2023-04-26T00:40:22.238Z,60.21582
2023-04-26T00:40:52.231Z,59.57422
2023-04-26T00:41:22.238Z,59.09082
2023-04-26T00:41:52.230Z,58.82715
2023-04-26T00:42:22.242Z,58.73145
2023-04-26T00:42:52.240Z,59.33789
2023-04-26T00:43:22.235Z,59.74707
2023-04-26T00:43:52.230Z,59.69238
2023-04-26T00:44:22.231Z,59.8457
2023-04-26T00:44:52.247Z,58.91992
2023-04-26T00:45:22.235Z,59.60352
2023-04-26T00:45:52.271Z,58.85547
2023-04-26T00:46:22.371Z,58.59961
2023-04-26T00:46:52.236Z,57.85059
2023-04-26T00:47:22.233Z,58.30176
2023-04-26T00:47:52.301Z,57.94336
2023-04-26T00:48:22.249Z,57.92578
2023-04-26T00:48:52.502Z,57.80273
2023-04-26T00:49:22.236Z,58.06836
2023-04-26T00:49:52.254Z,57.59961
2023-04-26T00:50:22.241Z,58.07031
2023-04-26T00:50:52.235Z,58.01465
2023-04-26T00:51:22.230Z,57.59277
2023-04-26T00:51:52.234Z,58.01367
2023-04-26T00:52:22.233Z,57.81738
2023-04-26T00:52:52.244Z,59.26465
2023-04-26T00:53:22.244Z,58.38574
2023-04-26T00:53:52.240Z,58.63477
2023-04-26T00:54:22.249Z,58.1543
2023-04-26T00:54:52.250Z,57.95996
2023-04-26T00:55:22.303Z,58.21094
2023-04-26T00:55:52.264Z,58.04199
2023-04-26T00:56:22.240Z,57.76465
2023-04-26T00:56:52.287Z,58.14941
2023-04-26T00:57:22.251Z,58.00684
2023-04-26T00:57:52.234Z,58.29883
2023-04-26T00:58:22.275Z,59.29102
2023-04-26T00:58:52.498Z,59.28027
2023-04-26T00:59:22.240Z,57.95898
2023-04-26T00:59:52.236Z,58.10254
2023-04-26T01:00:22.239Z,58.65723
2023-04-26T01:00:52.274Z,58.69141
2023-04-26T01:01:22.274Z,59.55762
2023-04-26T01:01:52.239Z,60.78418
2023-04-26T01:02:22.329Z,60.10645
2023-04-26T01:02:52.374Z,59.3877
2023-04-26T01:03:22.436Z,58.6543
2023-04-26T01:03:52.431Z,59.4502
2023-04-26T01:04:22.316Z,59.70801
2023-04-26T01:04:52.238Z,60.17578
2023-04-26T01:05:22.247Z,60.23926
2023-04-26T01:05:52.236Z,59.62695
2023-04-26T01:06:22.240Z,59.5791
2023-04-26T01:06:52.234Z,59.78613
2023-04-26T01:07:22.241Z,59.32422
2023-04-26T01:07:52.249Z,58.51074
2023-04-26T01:08:22.249Z,58.05078
2023-04-26T01:08:52.669Z,58.81641
2023-04-26T01:09:22.238Z,58.66504
2023-04-26T01:09:52.241Z,58.1875
2023-04-26T01:10:22.241Z,57.91992
2023-04-26T01:10:52.238Z,58.31543
2023-04-26T01:11:22.253Z,58.26172
2023-04-26T01:11:52.248Z,58.70508
2023-04-26T01:12:22.250Z,59.03125
2023-04-26T01:12:52.255Z,58.76953
2023-04-26T01:13:22.235Z,58.65039
2023-04-26T01:13:52.240Z,58.61133
2023-04-26T01:14:22.239Z,58.88867
2023-04-26T01:14:52.242Z,58.27344
2023-04-26T01:15:22.240Z,58.19824
2023-04-26T01:15:52.241Z,58.37109
2023-04-26T01:16:22.249Z,58.60645
2023-04-26T01:16:52.377Z,58.28613
2023-04-26T01:17:22.292Z,58.87207
2023-04-26T01:17:52.295Z,58.85352
2023-04-26T01:18:22.238Z,58.72266
2023-04-26T01:18:52.508Z,59.09082
2023-04-26T01:19:22.246Z,58.5127
2023-04-26T01:19:52.238Z,58.92578
2023-04-26T01:20:22.253Z,59.28027
2023-04-26T01:20:52.249Z,59.63672
2023-04-26T01:21:22.263Z,59.50293
2023-04-26T01:21:52.274Z,59.52344
2023-04-26T01:22:22.242Z,59.02832
2023-04-26T01:22:52.247Z,58.60938
2023-04-26T01:23:22.243Z,59.09277
2023-04-26T01:23:52.272Z,58.66406
2023-04-26T01:24:22.240Z,58.71289
2023-04-26T01:24:52.245Z,59.09961
2023-04-26T01:25:22.245Z,58.92578
2023-04-26T01:25:52.256Z,58.85449
2023-04-26T01:26:22.238Z,58.43555
2023-04-26T01:26:52.249Z,58.43066
2023-04-26T01:27:22.243Z,58.70117
2023-04-26T01:27:52.256Z,58.35645
2023-04-26T01:28:22.241Z,57.94336
2023-04-26T01:28:52.488Z,57.98926
2023-04-26T01:29:22.243Z,57.81934
2023-04-26T01:29:52.245Z,57.41895
2023-04-26T01:30:22.247Z,57.92871
2023-04-26T01:30:52.311Z,57.53613
2023-04-26T01:31:22.285Z,57.73438
2023-04-26T01:31:52.261Z,57.46191
2023-04-26T01:32:22.242Z,57.89941
2023-04-26T01:32:52.315Z,57.49609
2023-04-26T01:33:22.242Z,57.25879
2023-04-26T01:33:52.248Z,57.85352
2023-04-26T01:34:22.242Z,57.82324
2023-04-26T01:34:52.244Z,58.18945
2023-04-26T01:35:22.246Z,57.84766
2023-04-26T01:35:52.259Z,58.43359
2023-04-26T01:36:22.256Z,58.43945
2023-04-26T01:36:52.244Z,58.10742
2023-04-26T01:37:22.246Z,58.03711
2023-04-26T01:37:52.250Z,57.65527
2023-04-26T01:38:22.258Z,56.76465
2023-04-26T01:38:52.572Z,57.28516
2023-04-26T01:39:22.249Z,57.19824
2023-04-26T01:39:52.253Z,58.24707
2023-04-26T01:40:22.244Z,58.85449
2023-04-26T01:40:52.253Z,57.91309
2023-04-26T01:41:22.249Z,57.81348
2023-04-26T01:41:52.247Z,57.6748
2023-04-26T01:42:22.255Z,57.4834
2023-04-26T01:42:52.246Z,58.01172
2023-04-26T01:43:22.246Z,57.62305
2023-04-26T01:43:52.248Z,57.22266
2023-04-26T01:44:22.248Z,57.68945
2023-04-26T01:44:52.244Z,57.5957
2023-04-26T01:45:22.248Z,57.84082
2023-04-26T01:45:52.310Z,57.99805
2023-04-26T01:46:22.290Z,57.78027
2023-04-26T01:46:52.287Z,57.26074
2023-04-26T01:47:22.278Z,57.37207
2023-04-26T01:47:52.264Z,57.67578
2023-04-26T01:48:22.244Z,57.7168
2023-04-26T01:48:52.587Z,57.87988
2023-04-26T01:49:22.248Z,58.35156
2023-04-26T01:49:52.254Z,57.99609
2023-04-26T01:50:22.247Z,57.84766
2023-04-26T01:50:52.244Z,57.51074
2023-04-26T01:51:22.246Z,58.40332
2023-04-26T01:51:52.258Z,58.46875
2023-04-26T01:52:22.243Z,58.57422
2023-04-26T01:52:52.250Z,58.49805
2023-04-26T01:53:22.267Z,58.02344
2023-04-26T01:53:52.259Z,58.36719
2023-04-26T01:54:22.250Z,58.57031
2023-04-26T01:54:52.246Z,58.09961
2023-04-26T01:55:22.245Z,58.48047
2023-04-26T01:55:52.254Z,58.5625
2023-04-26T01:56:22.256Z,57.71777
2023-04-26T01:56:52.247Z,57.9082
2023-04-26T01:57:22.248Z,57.45508
2023-04-26T01:57:52.245Z,57.05859
2023-04-26T01:58:22.246Z,57.15723
2023-04-26T01:58:52.515Z,57.08887
2023-04-26T01:59:22.248Z,56.54492
2023-04-26T01:59:52.250Z,56.14844
2023-04-26T02:00:22.250Z,56.28125
2023-04-26T02:00:52.254Z,57.04297
2023-04-26T02:01:22.332Z,57.45703
2023-04-26T02:01:52.296Z,57.59473
2023-04-26T02:02:22.327Z,56.66699
2023-04-26T02:02:52.312Z,56.62695
2023-04-26T02:03:22.338Z,57.15625
2023-04-26T02:03:52.248Z,56.74316
2023-04-26T02:04:22.248Z,56.77832
2023-04-26T02:04:52.306Z,56.87793
2023-04-26T02:05:22.469Z,57.1543
2023-04-26T02:05:52.252Z,57.17383
2023-04-26T02:06:22.250Z,56.55469
2023-04-26T02:06:52.253Z,56.32227
2023-04-26T02:07:22.255Z,56.06836
2023-04-26T02:07:52.249Z,56.73633
2023-04-26T02:08:22.254Z,56.81543
2023-04-26T02:08:52.463Z,56.69727
2023-04-26T02:09:22.264Z,57.06738
2023-04-26T02:09:52.248Z,56.75684
2023-04-26T02:10:22.251Z,56.87891
2023-04-26T02:10:52.255Z,56.71191
2023-04-26T02:11:22.259Z,56.38379
2023-04-26T02:11:52.251Z,56.37305
2023-04-26T02:12:22.255Z,56.46289
2023-04-26T02:12:52.261Z,56.81836
2023-04-26T02:13:22.256Z,56.46875
2023-04-26T02:13:52.254Z,56.83789
2023-04-26T02:14:22.255Z,56.9668
2023-04-26T02:14:52.251Z,56.73438
2023-04-26T02:15:22.263Z,56.55566
2023-04-26T02:15:52.323Z,56.16309
2023-04-26T02:16:22.294Z,56.59668
2023-04-26T02:16:52.255Z,56.99902
2023-04-26T02:17:22.272Z,56.82324
2023-04-26T02:17:52.304Z,56.95898
2023-04-26T02:18:22.288Z,57.25195
2023-04-26T02:18:52.418Z,56.4043
2023-04-26T02:19:22.266Z,56.12207
2023-04-26T02:19:52.255Z,55.9668
2023-04-26T02:20:22.260Z,56.24707
2023-04-26T02:20:52.256Z,56.24707
2023-04-26T02:21:22.256Z,56.21777
2023-04-26T02:21:52.258Z,57.14941
2023-04-26T02:22:22.256Z,55.77148
2023-04-26T02:22:52.269Z,56.0918
2023-04-26T02:23:22.262Z,55.86035
2023-04-26T02:23:52.268Z,55.12988
2023-04-26T02:24:22.266Z,55.98633
2023-04-26T02:24:52.261Z,57.23633
2023-04-26T02:25:22.261Z,56.79004
2023-04-26T02:25:52.265Z,56.35449
2023-04-26T02:26:22.264Z,56.08887
2023-04-26T02:26:52.257Z,55.24902
2023-04-26T02:27:22.273Z,55.43457
2023-04-26T02:27:52.257Z,55.23145
2023-04-26T02:28:22.256Z,56.39453
2023-04-26T02:28:52.563Z,56.32422
2023-04-26T02:29:32.740Z,55.5332
2023-04-26T02:29:53.157Z,54.99805
2023-04-26T02:30:22.277Z,55.39746
2023-04-26T02:30:52.257Z,54.87988
2023-04-26T02:31:23.178Z,54.86914
2023-04-26T02:31:52.350Z,54.6377
2023-04-26T02:32:22.337Z,54.54785
2023-04-26T02:32:52.269Z,54.29102
2023-04-26T02:33:22.260Z,53.66602
2023-04-26T02:33:52.259Z,53
2023-04-26T02:34:22.258Z,53.44141
2023-04-26T02:34:52.260Z,52.75879
2023-04-26T02:35:22.260Z,52.8125
2023-04-26T02:35:52.261Z,52.8252
2023-04-26T02:36:22.258Z,52.87012
2023-04-26T02:36:52.260Z,53.27051
2023-04-26T02:37:22.271Z,52.85742
2023-04-26T02:37:52.274Z,52.7334
2023-04-26T02:38:22.281Z,52.22949
2023-04-26T02:38:52.415Z,52.4375
2023-04-26T02:39:22.263Z,53.04199
2023-04-26T02:39:52.265Z,52.46094
2023-04-26T02:40:22.269Z,51.57715
2023-04-26T02:40:52.269Z,52.47461
2023-04-26T02:41:22.263Z,52.19141
2023-04-26T02:41:52.262Z,52.25879
2023-04-26T02:42:22.262Z,52.35449
2023-04-26T02:42:52.261Z,51.48535
2023-04-26T02:43:22.269Z,51.75098
2023-04-26T02:43:52.283Z,51.55957
2023-04-26T02:44:22.278Z,52.19434
2023-04-26T02:44:52.272Z,51.72559
2023-04-26T02:45:22.263Z,51.98535
2023-04-26T02:45:52.267Z,51.93066
2023-04-26T02:46:22.294Z,51.80176
2023-04-26T02:46:52.322Z,51.90625
2023-04-26T02:47:22.306Z,51.47656
2023-04-26T02:47:52.316Z,51.83594
2023-04-26T02:48:22.260Z,51.83008
2023-04-26T02:48:52.467Z,51.71973
2023-04-26T02:49:22.262Z,51.44238
2023-04-26T02:49:52.285Z,51.48047
2023-04-26T02:50:22.265Z,52.24805
2023-04-26T02:50:52.287Z,51.89258
2023-04-26T02:51:22.260Z,52.53027
2023-04-26T02:51:52.267Z,52.41309
2023-04-26T02:52:22.262Z,51.94336
2023-04-26T02:52:52.266Z,51.53027
2023-04-26T02:53:22.277Z,51.74121
2023-04-26T02:53:52.262Z,51.4502
2023-04-26T02:54:22.269Z,51.27344
2023-04-26T02:54:52.263Z,51.4209
2023-04-26T02:55:22.274Z,51.48145
2023-04-26T02:55:52.272Z,51.01074
2023-04-26T02:56:22.272Z,50.52344
2023-04-26T02:56:52.267Z,49.84668
2023-04-26T02:57:22.263Z,50.27344
2023-04-26T02:57:52.263Z,49.82617
2023-04-26T02:58:22.264Z,51.82617
2023-04-26T02:58:52.507Z,50.78711
2023-04-26T02:59:22.266Z,50.7627
2023-04-26T02:59:52.273Z,49.67578
2023-04-26T03:00:22.274Z,49.7959
2023-04-26T03:00:52.285Z,50.28906
2023-04-26T03:01:22.291Z,50.36816
2023-04-26T03:01:52.314Z,50.66699
2023-04-26T03:02:22.464Z,50.6416
2023-04-26T03:02:52.366Z,50.2998
2023-04-26T03:03:22.486Z,50.57715
2023-04-26T03:03:52.349Z,50.05078
2023-04-26T03:04:22.331Z,50.43555
2023-04-26T03:04:52.264Z,50.48828
2023-04-26T03:05:22.264Z,50.37891
2023-04-26T03:05:52.272Z,50.33984
2023-04-26T03:06:22.263Z,49.61914
2023-04-26T03:06:52.266Z,50.12402
2023-04-26T03:07:22.264Z,49.77148
2023-04-26T03:07:52.271Z,49.14844
2023-04-26T03:08:22.275Z,49.08008
2023-04-26T03:08:52.598Z,49.02539
2023-04-26T03:09:22.278Z,49.47949
2023-04-26T03:09:52.276Z,49.34473
2023-04-26T03:10:22.263Z,49.83301
2023-04-26T03:10:52.270Z,49.55469
2023-04-26T03:11:22.271Z,49.79883
2023-04-26T03:11:52.280Z,49.83203
2023-04-26T03:12:22.284Z,49.4707
2023-04-26T03:12:52.264Z,49.73828
2023-04-26T03:13:22.270Z,49.25586
2023-04-26T03:13:52.265Z,49.08203
2023-04-26T03:14:22.264Z,48.94629
2023-04-26T03:14:52.264Z,48.87402
2023-04-26T03:15:22.265Z,48.78027
2023-04-26T03:15:52.270Z,48.11523
2023-04-26T03:16:22.294Z,48.89063
2023-04-26T03:16:52.352Z,48.39355
2023-04-26T03:17:22.368Z,48.38574
2023-04-26T03:17:52.433Z,48.85742
2023-04-26T03:18:22.274Z,49.24414
2023-04-26T03:18:52.500Z,49.34961
2023-04-26T03:19:22.282Z,49.08203
2023-04-26T03:19:52.271Z,48.78516
2023-04-26T03:20:22.269Z,48.28613
2023-04-26T03:20:52.321Z,48.33203
2023-04-26T03:21:22.267Z,48.75293
2023-04-26T03:21:52.280Z,49.22949
2023-04-26T03:22:22.298Z,49.69336
2023-04-26T03:22:52.292Z,49.23633
2023-04-26T03:23:22.275Z,49.03125
2023-04-26T03:23:52.270Z,49.16113
2023-04-26T03:24:22.286Z,48.9707
2023-04-26T03:24:52.283Z,48.76172
2023-04-26T03:25:22.269Z,49.08398
2023-04-26T03:25:52.276Z,50.0293
2023-04-26T03:26:22.278Z,50.0957
2023-04-26T03:26:52.271Z,50.30078
2023-04-26T03:27:22.275Z,49.94238
2023-04-26T03:27:52.293Z,50.46094
2023-04-26T03:28:22.281Z,49.375
2023-04-26T03:28:52.672Z,49.60254
2023-04-26T03:29:22.271Z,49.72168
2023-04-26T03:29:52.283Z,49.33203
2023-04-26T03:30:22.291Z,48.7998
2023-04-26T03:30:52.281Z,49.79102
2023-04-26T03:31:22.321Z,49.36914
2023-04-26T03:31:52.282Z,48.79785
2023-04-26T03:32:22.276Z,48.64063
2023-04-26T03:32:52.293Z,48.26367
2023-04-26T03:33:22.273Z,48.37891
2023-04-26T03:33:52.281Z,48.17773
2023-04-26T03:34:22.278Z,48.20117
2023-04-26T03:34:52.281Z,48.43262
2023-04-26T03:35:22.309Z,48.75293
2023-04-26T03:35:52.274Z,48.75977
2023-04-26T03:36:22.279Z,48.70996
2023-04-26T03:36:52.283Z,48.52734
2023-04-26T03:37:22.289Z,48.42285
2023-04-26T03:37:53.489Z,48.25781
2023-04-26T03:38:22.280Z,48.5752
2023-04-26T03:38:52.496Z,48.63867
2023-04-26T03:39:22.275Z,48.67969
2023-04-26T03:39:52.275Z,48.65332
2023-04-26T03:40:22.276Z,48.58789
2023-04-26T03:40:52.284Z,48.42676
2023-04-26T03:41:22.281Z,49.10254
2023-04-26T03:41:52.288Z,48.82715
2023-04-26T03:42:22.278Z,49.52148
2023-04-26T03:42:52.323Z,49.99023
2023-04-26T03:43:22.292Z,49.52539
2023-04-26T03:43:52.287Z,48.47461
2023-04-26T03:44:22.282Z,48.79004
2023-04-26T03:44:52.277Z,48.39844
2023-04-26T03:45:22.279Z,49.04395
2023-04-26T03:45:52.320Z,49.28809
2023-04-26T03:46:22.356Z,48.87793
2023-04-26T03:46:52.278Z,48.88477
2023-04-26T03:47:22.356Z,48.34473
2023-04-26T03:47:52.323Z,48.16309
2023-04-26T03:48:22.283Z,48.26074
2023-04-26T03:48:52.520Z,48.61035
2023-04-26T03:49:22.280Z,48.43652
2023-04-26T03:49:52.281Z,48.00684
2023-04-26T03:50:22.281Z,47.70313
2023-04-26T03:50:52.284Z,47.22559
2023-04-26T03:51:22.295Z,47.75488
2023-04-26T03:51:52.282Z,47.66699
2023-04-26T03:52:22.284Z,47.75293
2023-04-26T03:52:52.299Z,47.1123
2023-04-26T03:53:22.277Z,46.45508
2023-04-26T03:53:52.281Z,46.15137
2023-04-26T03:54:22.281Z,46.5625
2023-04-26T03:54:52.278Z,47.18359
2023-04-26T03:55:22.282Z,46.96387
2023-04-26T03:55:52.283Z,46.9248
2023-04-26T03:56:22.290Z,46.44727
2023-04-26T03:56:52.283Z,46.81152
2023-04-26T03:57:22.279Z,46.64746
2023-04-26T03:57:52.285Z,46.30859
2023-04-26T03:58:22.298Z,46.1709
2023-04-26T03:58:52.576Z,45.67578
2023-04-26T03:59:22.285Z,46.25293
2023-04-26T03:59:52.280Z,45.78516
2023-04-26T04:00:22.280Z,45.88477
2023-04-26T04:00:52.281Z,47.46191
2023-04-26T04:01:22.280Z,47.02539
2023-04-26T04:01:52.283Z,46.80566
2023-04-26T04:02:22.364Z,46.66699
2023-04-26T04:02:52.469Z,47.00488
2023-04-26T04:03:22.450Z,47.09082
2023-04-26T04:03:52.462Z,46.44824
2023-04-26T04:04:22.609Z,46.47754
2023-04-26T04:04:52.507Z,46.39648
2023-04-26T04:05:22.344Z,46.38184
2023-04-26T04:05:52.283Z,47.40332
2023-04-26T04:06:22.281Z,47.4541
2023-04-26T04:06:52.287Z,46.84375
2023-04-26T04:07:22.321Z,47
2023-04-26T04:07:52.295Z,46.87305
2023-04-26T04:08:22.302Z,46.47852
2023-04-26T04:08:52.593Z,45.95508
2023-04-26T04:09:22.287Z,45.77441
2023-04-26T04:09:52.281Z,45.43262
2023-04-26T04:10:22.286Z,45.29883
2023-04-26T04:10:52.281Z,45.47656
2023-04-26T04:11:22.286Z,45.60938
2023-04-26T04:11:52.284Z,45.35449
2023-04-26T04:12:22.287Z,45.39453
2023-04-26T04:12:52.282Z,45.51563
2023-04-26T04:13:22.300Z,46.11035
2023-04-26T04:13:52.280Z,45.69531
2023-04-26T04:14:22.285Z,45.08398
2023-04-26T04:14:52.281Z,44.95605
2023-04-26T04:15:22.287Z,44.96875
2023-04-26T04:15:52.321Z,43.87305
2023-04-26T04:16:22.349Z,44.39941
2023-04-26T04:16:52.302Z,44.15723
2023-04-26T04:17:22.298Z,44.49902
2023-04-26T04:17:52.357Z,44.47656
2023-04-26T04:18:22.284Z,44.19629
2023-04-26T04:18:52.663Z,43.04688
2023-04-26T04:19:22.312Z,44.35156
2023-04-26T04:19:52.289Z,45.05762
2023-04-26T04:20:22.284Z,44.15723
2023-04-26T04:20:52.292Z,44.66309
2023-04-26T04:21:22.314Z,45.32129
2023-04-26T04:21:52.287Z,45.16699
2023-04-26T04:22:22.287Z,45.03809
2023-04-26T04:22:52.288Z,44.57422
2023-04-26T04:23:22.296Z,43.77148
2023-04-26T04:23:52.292Z,43.07324
2023-04-26T04:24:22.295Z,42.68359
2023-04-26T04:24:52.283Z,42.90234
2023-04-26T04:25:22.293Z,42.19531
2023-04-26T04:25:52.283Z,42.52148
2023-04-26T04:26:22.289Z,43.20215
2023-04-26T04:26:52.290Z,43.09277
2023-04-26T04:27:22.286Z,42.65918
2023-04-26T04:27:52.285Z,43.30957
2023-04-26T04:28:22.289Z,44.39355
2023-04-26T04:28:52.458Z,42.65039
2023-04-26T04:29:22.287Z,41.66602
2023-04-26T04:29:52.288Z,40.86816
2023-04-26T04:30:22.287Z,40.55566
2023-04-26T04:30:52.347Z,39.62109
2023-04-26T04:31:22.367Z,39.49805
2023-04-26T04:31:52.299Z,39.78027
2023-04-26T04:32:22.345Z,41.42871
2023-04-26T04:32:52.350Z,41.36621
2023-04-26T04:33:22.287Z,41.42676
2023-04-26T04:33:52.289Z,42.16895
2023-04-26T04:34:22.284Z,41.89941
2023-04-26T04:34:52.291Z,40.19531
2023-04-26T04:35:22.290Z,39.0498
2023-04-26T04:35:52.306Z,38.57031
2023-04-26T04:36:22.292Z,39.4082
2023-04-26T04:36:52.296Z,40.02246
2023-04-26T04:37:22.298Z,40.3584
2023-04-26T04:37:52.313Z,38.83496
2023-04-26T04:38:22.302Z,36.6875
2023-04-26T04:38:52.477Z,33.82422
2023-04-26T04:39:22.293Z,34.86133
2023-04-26T04:39:52.289Z,35.10742
2023-04-26T04:40:22.289Z,36.69727
2023-04-26T04:40:52.290Z,38.30762
2023-04-26T04:41:22.328Z,37.18457
2023-04-26T04:41:52.291Z,35.68359
2023-04-26T04:42:22.318Z,37.80762
2023-04-26T04:42:52.294Z,37.30469
2023-04-26T04:43:22.329Z,35.25488
2023-04-26T04:43:52.295Z,33.24023
2023-04-26T04:44:22.302Z,32.51367
2023-04-26T04:44:52.291Z,30.93945
2023-04-26T04:45:22.290Z,32.6582
2023-04-26T04:45:52.291Z,32.31445
2023-04-26T04:46:22.313Z,33.25586
2023-04-26T04:46:52.342Z,34.10938
2023-04-26T04:47:22.412Z,33.99805
2023-04-26T04:47:52.340Z,34.95605
2023-04-26T04:48:22.291Z,34.84375
2023-04-26T04:48:52.481Z,35.48242
2023-04-26T04:49:22.291Z,36.9043
2023-04-26T04:49:52.294Z,38.19434
2023-04-26T04:50:22.292Z,38.01367
2023-04-26T04:50:52.297Z,38.62207
2023-04-26T04:51:22.290Z,38.61914
2023-04-26T04:51:52.295Z,39.27637
2023-04-26T04:52:22.294Z,38.57324
2023-04-26T04:52:52.301Z,40.25
2023-04-26T04:53:22.313Z,39.9082
2023-04-26T04:53:52.294Z,39.27637
2023-04-26T04:54:22.292Z,40.10938
2023-04-26T04:54:52.294Z,39.42676
2023-04-26T04:55:22.298Z,38.9873
2023-04-26T04:55:52.298Z,38.61914
2023-04-26T04:56:22.295Z,38.22363
2023-04-26T04:56:52.297Z,37.43457
2023-04-26T04:57:22.293Z,37.72168
2023-04-26T04:57:52.298Z,39.24316
2023-04-26T04:58:22.299Z,40.5293
2023-04-26T04:58:52.558Z,40.94336
2023-04-26T04:59:22.296Z,39.86035
2023-04-26T04:59:52.297Z,38.5166
2023-04-26T05:00:22.297Z,37.88965
2023-04-26T05:00:52.298Z,38.90039
2023-04-26T05:01:22.324Z,38.87988
2023-04-26T05:01:52.321Z,37.65527
2023-04-26T05:02:22.390Z,35.89746
2023-04-26T05:02:52.400Z,35.36914
2023-04-26T05:03:22.386Z,34.49609
2023-04-26T05:03:52.666Z,33.30469
2023-04-26T05:04:22.437Z,33.25391
2023-04-26T05:04:52.386Z,34.41895
2023-04-26T05:05:22.304Z,35.94629
2023-04-26T05:05:52.307Z,38.04883
2023-04-26T05:06:22.305Z,38.25293
2023-04-26T05:06:52.312Z,37.29102
2023-04-26T05:07:24.365Z,36.31543
2023-04-26T05:07:52.315Z,34.92773
2023-04-26T05:08:22.308Z,34.13672
2023-04-26T05:08:52.314Z,34.50586
2023-04-26T05:09:22.304Z,34.69043
2023-04-26T05:09:52.318Z,33.47852
2023-04-26T05:10:22.304Z,34.97168
2023-04-26T05:10:52.301Z,34.61035
2023-04-26T05:11:22.320Z,33.44922
2023-04-26T05:11:52.318Z,33.22949
2023-04-26T05:12:22.309Z,30.77832
2023-04-26T05:12:52.311Z,31.08594
2023-04-26T05:13:22.301Z,34.50488
2023-04-26T05:13:52.954Z,37.4873
2023-04-26T05:14:22.321Z,36.06348
2023-04-26T05:14:52.312Z,34.54492
2023-04-26T05:15:22.311Z,36.21875
2023-04-26T05:15:52.316Z,35.80078
2023-04-26T05:16:22.353Z,36.53906
2023-04-26T05:16:52.330Z,36.76465
2023-04-26T05:17:22.332Z,34.96484
2023-04-26T05:17:52.371Z,35.5918
2023-04-26T05:18:22.337Z,34.51172
2023-04-26T05:18:52.308Z,33.24219
2023-04-26T05:19:22.306Z,34.15723
2023-04-26T05:19:52.307Z,33.7998
2023-04-26T05:20:22.312Z,33.95313
2023-04-26T05:20:52.306Z,31.81152
2023-04-26T05:21:22.312Z,32.16309
2023-04-26T05:21:52.308Z,35.57813
2023-04-26T05:22:22.380Z,38.03223
2023-04-26T05:22:52.343Z,38.72754
2023-04-26T05:23:22.316Z,40.5459
2023-04-26T05:23:52.478Z,41.26367
2023-04-26T05:24:22.311Z,41.89453
2023-04-26T05:24:52.316Z,41.62598
2023-04-26T05:25:22.760Z,41.92676
2023-04-26T05:25:52.315Z,41.10059
2023-04-26T05:26:22.313Z,41.2373
2023-04-26T05:26:52.312Z,41.39941
2023-04-26T05:27:22.319Z,41.23438
2023-04-26T05:27:52.309Z,41.99219
2023-04-26T05:28:22.314Z,41.51953
2023-04-26T05:28:52.309Z,41.09961
2023-04-26T05:29:22.314Z,42.14355
2023-04-26T05:29:52.322Z,43.41602
2023-04-26T05:30:22.324Z,45.1748
2023-04-26T05:30:52.316Z,45.66309
2023-04-26T05:31:22.324Z,45.22461
2023-04-26T05:31:52.345Z,45.10449
2023-04-26T05:32:22.322Z,45.81934
2023-04-26T05:32:52.339Z,45.93066
2023-04-26T05:33:22.310Z,47.09375
2023-04-26T05:33:52.659Z,47.39746
2023-04-26T05:34:22.310Z,47.65137
2023-04-26T05:34:52.312Z,50.16309
2023-04-26T05:35:22.311Z,50.96875
2023-04-26T05:35:52.323Z,51.47949
2023-04-26T05:36:22.311Z,51.66992
2023-04-26T05:36:52.316Z,51.85254
2023-04-26T05:37:22.336Z,51.81836
2023-04-26T05:37:52.336Z,52.05957
2023-04-26T05:38:22.341Z,52.57129
2023-04-26T05:38:52.329Z,52.46387
2023-04-26T05:39:22.316Z,52.13184
2023-04-26T05:39:52.320Z,51.71973
2023-04-26T05:40:22.322Z,51.4834
2023-04-26T05:40:52.316Z,51.90137
2023-04-26T05:41:22.313Z,52.22852
2023-04-26T05:41:52.319Z,51.94629
2023-04-26T05:42:22.340Z,52.49219
2023-04-26T05:42:52.315Z,52.54688
2023-04-26T05:43:22.315Z,51.81836
2023-04-26T05:43:52.517Z,51.54102
2023-04-26T05:44:22.320Z,51.75391
2023-04-26T05:44:52.316Z,52.73828
2023-04-26T05:45:22.330Z,52.61426
2023-04-26T05:45:52.360Z,51.86426
2023-04-26T05:46:22.377Z,52.92969
2023-04-26T05:46:52.323Z,53.86035
2023-04-26T05:47:22.317Z,53.86035
2023-04-26T05:47:52.371Z,53.33496
2023-04-26T05:48:22.326Z,52.17285
2023-04-26T05:48:52.323Z,52.88672
2023-04-26T05:49:22.318Z,52.59668
2023-04-26T05:49:52.320Z,51.30664
2023-04-26T05:50:22.317Z,51.50098
2023-04-26T05:50:52.317Z,51.70508
2023-04-26T05:51:22.344Z,50.9248
2023-04-26T05:51:52.321Z,52.44238
2023-04-26T05:52:22.319Z,51.63184
2023-04-26T05:52:52.323Z,51.16602
2023-04-26T05:53:22.321Z,49.7793
2023-04-26T05:53:52.562Z,49.05664